Polfry, Mississippi
Current Conditions -  °F | °C
As of 7:58 AM on Wednesday 22 Oct 2014 (Local Time) from KBIX Reporting Station
Clear Clear  
Wind Chill: 60°   Ceiling: Unl
Heat Index: 60°   Visibility: 10mi
Dew Point: 54°   Wind: 5mph
Humidity: 80%   Direction: 40°NE
Pressure: 30.08"   Gusts: NA
Location:  30.418°N, 88.7558°W
Report Text: KBIX 221258Z AUTO 04004KT 10SM CLR 15/12 A3008 RMK AO2 SLP189 T01540120
Loading
Personal Weather Stations






























Interactive Weather Map
Tropical Storm Tracking
New forecast layout! Learn more

10-Day Weather Forecast

Advertisements
Track Severe Weather on mobile